Terminal Aerodrome Forecast
Issued by NWS

Home | Current Version | Previous Version | Text Only | Print | Product List | Glossary Off
Versions: 1 2 3 4 5 6 7 8 9 10 11 12 13

000
FTUS45 KGGW 211720
TAFOLF
TAF
KOLF 211720Z 2118/2218 29021G33KT P6SM SCT025 BKN035
     FM212300 28016KT P6SM FEW080
     FM220300 VRB05KT P6SM FEW190
     FM221300 22005KT P6SM BKN060 WS020/25035KT
     FM221600 23014KT P6SM BKN070=

USA.gov is the U.S. government's official web portal to all federal, state and local government web resources and services.